熊本 の空港の天気 - METARとTAF

熊本空港 ( RJFT / KMJ ) - 熊本県益城町
飛行場実況気象(Metar)
観測時間12/16 21:00 JST (12/16 12:00 UTC)
風向・風速北西 2m/s
視程10km以上
天気現象
少しの雲 雲底高度 910m
全天の4割程度の雲 雲底高度 2130m
気温3℃
湿度65%
気圧1024hPa
METARRJFT 161200Z 31004KT 9999 FEW030 SCT070 03/M03 Q1024
過去の天気等 Google飛行場航空写真 Wunderground天気予報

過去48時間のMETAR

飛行場予報(TAF)
発表時間: 12/16 20:11 JST (12/16 11:11 UTC)
予報対象時間: 16日21時 JST ~ 18日3時 JST
風向・風速北西 3m/s
視程10km以上
少しの雲 雲底高度 300m
全天の4割程度の雲 雲底高度 460m
全天の8割程度の雲 雲底高度 760m
17日0時 JST ~ 17日2時 JST に一時的に
視程3,000m
天気現象弱いしゅう雪
17日21時 JST ~ 17日24時 JST に徐々に
風向・風速東北東 3m/s
TAF RJFT 161111Z 1612/1718 31006KT 9999 FEW010 SCT015 BKN025
TEMPO 1615/1617 3000 -SHSN
BECMG 1712/1715 07005KT
日本の空港のMETAR・TAFへのリンク

RJTT 東京国際空港
RJAA 新東京国際空港
RJBB 関西国際空港
RJOO 大阪空港
RJGG 中部国際空港
RJCC 新千歳空港
RJFF 福岡空港
ROAH 那覇空港


RJEC 旭川空港
RJCH 函館空港
RJCK 釧路空港
RJCM 女満別空港
RJCB 帯広空港
RJSA 青森空港
RJSS 仙台空港
RJSK 秋田空港
RJSF 福島空港
RJAH 茨城空港
RJSN 新潟空港
RJNT 富山空港
RJNK 小松飛行場
RJNS 静岡空港
RJOH 美保飛行場
RJOC 出雲空港
RJOB 岡山空港
RJOA 広島空港
RJOI 岩国飛行場
RJOT 高松空港
RJOM 松山空港
RJOK 高知空港
RJFR 北九州空港
RJFT 熊本空港
RJFU 長崎空港
RJFS 佐賀空港
RJFO 大分空港
RJFM 宮崎空港
RJFK 鹿児島空港
ROIG 石垣島空港
RJTY 横田飛行場
ROTM 普天間飛行場
RODN 嘉手納飛行場